Time;durP1;ratioP1;P1;durP2;ratioP2;P2;SDS_P1;SDS_P2;PMS_P1;PMS_P2;Temp;Humidity;BMP_temperature;BMP_pressure;BME280_temperature;BME280_humidity;BME280_pressure;Samples;Min_cycle;Max_cycle;Signal;HPM_P1;HPM_P2
2023/11/11 00:01:57;;;;;;;0.40;0.40;;;;;;;10.22;nan;98867.59;5039655;27;96926;-81
2023/11/11 00:04:24;;;;;;;7.70;2.63;;;;;;;10.15;nan;98865.31;5035671;27;96870;-83
2023/11/11 00:06:49;;;;;;;8.60;5.60;;;;;;;10.10;nan;98856.00;5029931;27;100963;-82
2023/11/11 00:09:16;;;;;;;1.17;1.15;;;;;;;10.14;nan;98865.38;5014513;27;100878;-82
2023/11/11 00:11:43;;;;;;;1.00;1.00;;;;;;;10.12;nan;98857.63;5032587;27;97173;-82
2023/11/11 00:14:09;;;;;;;3.10;2.10;;;;;;;9.90;nan;98834.34;5034471;27;98398;-82
2023/11/11 00:16:35;;;;;;;4.30;3.67;;;;;;;10.06;nan;98864.94;5028388;27;101612;-82
2023/11/11 00:19:01;;;;;;;0.30;0.30;;;;;;;9.86;nan;98843.31;5055783;27;97379;-81
2023/11/11 00:21:27;;;;;;;1.58;1.48;;;;;;;9.65;nan;98811.25;5027675;27;96783;-82
2023/11/11 00:23:56;;;;;;;4.03;2.90;;;;;;;9.98;nan;98874.09;5053271;27;97164;-82
2023/11/11 00:26:22;;;;;;;0.65;0.65;;;;;;;9.86;nan;98863.41;5018066;27;101282;-82
2023/11/11 00:28:48;;;;;;;2.58;2.38;;;;;;;9.90;nan;98876.28;5019004;27;101113;-82
2023/11/11 00:31:15;;;;;;;0.95;0.95;;;;;;;9.93;nan;98885.75;5020780;27;96883;-82
2023/11/11 00:33:42;;;;;;;1.55;1.33;;;;;;;9.92;nan;98879.69;5020147;27;96828;-82
2023/11/11 00:36:08;;;;;;;0.93;0.93;;;;;;;9.90;nan;98880.69;5025260;27;97940;-82
2023/11/11 00:38:35;;;;;;;3.13;1.85;;;;;;;9.82;nan;98880.25;5033950;27;100868;-82
2023/11/11 00:41:00;;;;;;;2.00;1.90;;;;;;;9.83;nan;98880.19;5035605;27;97239;-82
2023/11/11 00:43:26;;;;;;;0.65;0.65;;;;;;;9.59;nan;98850.88;5013162;27;97245;-81
2023/11/11 00:45:53;;;;;;;3.03;2.63;;;;;;;9.77;nan;98877.84;5031241;27;101535;-82
2023/11/11 00:48:19;;;;;;;5.82;3.78;;;;;;;9.72;nan;98870.25;5014727;27;101004;-82
2023/11/11 00:50:45;;;;;;;2.70;2.50;;;;;;;9.56;nan;98840.56;5054867;27;96758;-82
2023/11/11 00:53:11;;;;;;;1.65;1.55;;;;;;;9.50;nan;98841.72;5018873;27;96984;-83
2023/11/11 00:55:36;;;;;;;6.35;5.75;;;;;;;9.44;nan;98828.13;5034101;27;97909;-83
2023/11/11 00:58:03;;;;;;;1.67;1.58;;;;;;;9.61;nan;98862.13;5062399;27;98348;-83
2023/11/11 01:00:29;;;;;;;3.40;3.15;;;;;;;9.56;nan;98844.94;5015001;27;96752;-83
2023/11/11 01:02:55;;;;;;;0.38;0.38;;;;;;;9.37;nan;98819.75;5034598;27;97136;-82
2023/11/11 01:05:20;;;;;;;3.67;3.42;;;;;;;9.21;nan;98821.47;5017877;27;100911;-82
2023/11/11 01:07:46;;;;;;;2.47;2.17;;;;;;;9.47;nan;98857.59;5018991;27;101391;-83
2023/11/11 01:10:12;;;;;;;0.52;0.52;;;;;;;9.30;nan;98820.97;5038767;27;96813;-82
2023/11/11 01:12:38;;;;;;;3.70;3.40;;;;;;;9.58;nan;98869.31;5035256;27;96911;-83
2023/11/11 01:15:08;;;;;;;2.95;2.80;;;;;;;9.48;nan;98853.22;5012321;27;101716;-82
2023/11/11 01:17:35;;;;;;;2.55;1.60;;;;;;;9.49;nan;98863.63;5028409;27;101192;-83
2023/11/11 01:20:01;;;;;;;1.00;1.00;;;;;;;9.44;nan;98863.00;5030855;27;96900;-82
2023/11/11 01:22:27;;;;;;;2.22;2.13;;;;;;;9.35;nan;98847.78;5014741;27;96940;-82
2023/11/11 01:24:52;;;;;;;4.07;3.67;;;;;;;9.36;nan;98848.63;5034130;27;101329;-82
2023/11/11 01:27:18;;;;;;;1.13;1.05;;;;;;;9.14;nan;98810.47;5041077;27;97824;-82
2023/11/11 01:29:43;;;;;;;0.70;0.70;;;;;;;9.14;nan;98820.94;5038417;27;96826;-82
2023/11/11 01:32:09;;;;;;;0.85;0.80;;;;;;;9.16;nan;98845.28;5038371;27;97009;-82
2023/11/11 01:34:35;;;;;;;2.40;2.30;;;;;;;9.18;nan;98847.81;5031596;27;98361;-82
2023/11/11 01:37:05;;;;;;;2.03;1.85;;;;;;;9.20;nan;98862.50;5030913;27;101642;-82
2023/11/11 01:39:34;;;;;;;12.00;6.00;;;;;;;8.81;nan;98792.09;5018182;27;96773;-82
2023/11/11 01:42:00;;;;;;;6.40;1.80;;;;;;;9.13;nan;98844.56;5034341;27;97287;-82
2023/11/11 01:44:26;;;;;;;2.25;2.05;;;;;;;8.94;nan;98810.66;5042428;27;98715;-82
2023/11/11 01:46:51;;;;;;;2.78;2.45;;;;;;;9.07;nan;98825.66;5031226;27;100722;-83
2023/11/11 01:49:17;;;;;;;2.42;2.30;;;;;;;9.17;nan;98844.34;5022829;27;96899;-82
2023/11/11 01:51:43;;;;;;;0.80;0.80;;;;;;;9.02;nan;98814.56;5031330;27;96886;-82
2023/11/11 01:54:14;;;;;;;2.50;2.28;;;;;;;9.17;nan;98844.34;5032678;27;97929;-82
2023/11/11 01:56:41;;;;;;;2.10;2.00;;;;;;;8.86;nan;98790.09;5035882;27;97309;-82
2023/11/11 01:59:06;;;;;;;2.78;2.60;;;;;;;9.13;nan;98841.94;5029891;27;96797;-83
2023/11/11 02:01:32;;;;;;;2.63;2.50;;;;;;;9.00;nan;98808.56;5021291;27;97272;-82
2023/11/11 02:03:58;;;;;;;2.42;0.90;;;;;;;9.09;nan;98827.34;5045614;27;98569;-82
2023/11/11 02:06:25;;;;;;;2.50;2.22;;;;;;;9.08;nan;98823.88;5036681;27;100211;-82
2023/11/11 02:08:53;;;;;;;1.00;1.00;;;;;;;9.05;nan;98824.88;5028054;27;97001;-82
2023/11/11 02:11:19;;;;;;;0.80;0.80;;;;;;;9.01;nan;98815.47;5048780;27;97015;-82
2023/11/11 02:13:44;;;;;;;1.42;1.42;;;;;;;8.95;nan;98807.94;5033947;27;101913;-83
2023/11/11 02:16:10;;;;;;;2.88;2.58;;;;;;;8.96;nan;98817.50;5039408;27;101348;-83
2023/11/11 02:18:36;;;;;;;0.28;0.28;;;;;;;8.75;nan;98785.41;5036754;27;97008;-82
2023/11/11 02:21:01;;;;;;;3.22;2.95;;;;;;;8.66;nan;98775.41;5030563;27;96915;-82
2023/11/11 02:23:35;;;;;;;3.17;2.85;;;;;;;8.88;nan;98811.81;5019304;27;101235;-82
2023/11/11 02:26:02;;;;;;;5.03;4.43;;;;;;;8.85;nan;98806.75;5038549;27;97502;-82
2023/11/11 02:28:28;;;;;;;3.33;3.10;;;;;;;8.75;nan;98792.41;5023380;27;96760;-81
2023/11/11 02:30:54;;;;;;;13.27;2.40;;;;;;;8.64;nan;98777.28;5005764;27;96805;-83
2023/11/11 02:33:19;;;;;;;1.42;1.33;;;;;;;8.74;nan;98795.97;5030159;27;101094;-82
2023/11/11 02:35:45;;;;;;;2.85;2.65;;;;;;;8.78;nan;98818.44;5041634;27;101156;-83
2023/11/11 02:38:12;;;;;;;5.25;3.10;;;;;;;8.39;nan;98759.34;5003846;27;97008;-82
2023/11/11 02:40:41;;;;;;;3.05;2.85;;;;;;;8.48;nan;98776.34;5028673;27;96759;-82
2023/11/11 02:43:07;;;;;;;1.10;1.10;;;;;;;8.67;nan;98805.03;5027489;27;98236;-83
2023/11/11 02:45:33;;;;;;;1.10;1.10;;;;;;;8.73;nan;98816.06;5023902;27;97946;-82
2023/11/11 02:48:00;;;;;;;3.38;3.17;;;;;;;8.68;nan;98814.59;5039596;27;96829;-80
2023/11/11 02:50:26;;;;;;;2.58;2.38;;;;;;;8.67;nan;98820.72;5030633;27;97125;-83
2023/11/11 02:52:51;;;;;;;4.78;2.83;;;;;;;8.47;nan;98785.97;5040060;27;97651;-83
2023/11/11 02:55:18;;;;;;;2.90;2.60;;;;;;;8.59;nan;98816.75;5023092;27;101787;-83
2023/11/11 02:57:45;;;;;;;1.23;1.23;;;;;;;8.49;nan;98791.94;5013282;28;96751;-82
2023/11/11 03:00:11;;;;;;;1.80;1.40;;;;;;;8.49;nan;98791.94;5026333;27;97107;-83
2023/11/11 03:02:37;;;;;;;1.00;1.00;;;;;;;8.36;nan;98777.78;5040116;27;99054;-83
2023/11/11 03:05:04;;;;;;;3.63;2.65;;;;;;;8.52;nan;98798.81;5025208;27;101186;-82
2023/11/11 03:07:29;;;;;;;3.78;3.53;;;;;;;8.46;nan;98794.72;5008449;27;97152;-83
2023/11/11 03:09:55;;;;;;;1.98;1.88;;;;;;;8.46;nan;98792.09;5014642;27;96879;-82
2023/11/11 03:12:21;;;;;;;6.30;3.67;;;;;;;8.44;nan;98796.59;5042376;27;98515;-82
2023/11/11 03:14:46;;;;;;;2.63;2.42;;;;;;;8.47;nan;98806.91;5026892;27;98089;-82
2023/11/11 03:17:12;;;;;;;6.18;5.43;;;;;;;8.47;nan;98796.44;5014165;27;97000;-82
2023/11/11 03:19:37;;;;;;;2.92;2.72;;;;;;;8.48;nan;98802.50;5022077;27;97096;-83
2023/11/11 03:22:04;;;;;;;6.18;5.57;;;;;;;8.27;nan;98766.00;5010120;27;101545;-83
2023/11/11 03:24:30;;;;;;;3.35;3.10;;;;;;;8.39;nan;98791.56;5017641;27;100910;-82
2023/11/11 03:26:55;;;;;;;0.20;0.20;;;;;;;8.42;nan;98789.75;5019137;27;96757;-82
2023/11/11 03:29:21;;;;;;;0.38;0.38;;;;;;;8.20;nan;98748.06;5023458;27;96724;-83
2023/11/11 03:31:47;;;;;;;1.77;1.55;;;;;;;8.02;nan;98721.91;5027057;27;102096;-82
2023/11/11 03:34:13;;;;;;;3.03;2.80;;;;;;;8.27;nan;98762.53;5009496;27;101155;-83
2023/11/11 03:36:39;;;;;;;4.18;3.38;;;;;;;8.31;nan;98775.38;5024932;27;97226;-82
2023/11/11 03:39:05;;;;;;;1.95;1.83;;;;;;;8.29;nan;98781.59;5025788;27;97236;-83
2023/11/11 03:41:30;;;;;;;0.52;0.52;;;;;;;8.28;nan;98788.59;5037198;27;100848;-83
2023/11/11 03:43:56;;;;;;;3.17;2.90;;;;;;;8.07;nan;98764.34;5024957;27;101287;-83
2023/11/11 03:46:21;;;;;;;2.75;2.65;;;;;;;7.94;nan;98753.66;5033198;27;98214;-83
2023/11/11 03:48:47;;;;;;;3.47;3.28;;;;;;;8.19;nan;98803.91;5043704;27;96825;-82
2023/11/11 03:51:13;;;;;;;3.33;3.10;;;;;;;8.17;nan;98790.88;5015839;27;101563;-83
2023/11/11 03:53:38;;;;;;;3.10;2.90;;;;;;;8.10;nan;98790.34;5031356;27;101988;-83
2023/11/11 03:56:07;;;;;;;0.82;0.82;;;;;;;7.90;nan;98754.72;5026320;27;97357;-83
2023/11/11 03:58:33;;;;;;;0.60;0.60;;;;;;;8.07;nan;98780.03;5033078;27;96869;-82
2023/11/11 04:00:59;;;;;;;3.88;3.67;;;;;;;8.20;nan;98800.34;5013075;27;101157;-83
2023/11/11 04:03:24;;;;;;;1.60;1.50;;;;;;;7.98;nan;98754.34;5013001;27;101566;-83
2023/11/11 04:05:51;;;;;;;2.42;2.25;;;;;;;8.18;nan;98786.53;5014082;27;96737;-82
2023/11/11 04:08:16;;;;;;;3.53;3.28;;;;;;;8.25;nan;98798.38;5026894;27;96933;-82
2023/11/11 04:10:42;;;;;;;0.65;0.65;;;;;;;8.28;nan;98796.44;5024035;27;101159;-83
2023/11/11 04:13:09;;;;;;;6.30;5.72;;;;;;;8.19;nan;98796.91;5019927;27;101373;-83
2023/11/11 04:15:35;;;;;;;1.25;1.25;;;;;;;8.22;nan;98785.44;5028727;27;97155;-82
2023/11/11 04:18:00;;;;;;;1.58;1.48;;;;;;;8.21;nan;98786.38;5024963;27;96925;-82
2023/11/11 04:20:26;;;;;;;2.90;2.70;;;;;;;7.97;nan;98742.22;5015246;27;101464;-82
2023/11/11 04:22:52;;;;;;;4.47;3.60;;;;;;;8.11;nan;98763.28;5016903;27;101190;-83
2023/11/11 04:25:18;;;;;;;6.22;4.18;;;;;;;8.06;nan;98748.78;5032107;27;96835;-82
2023/11/11 04:27:44;;;;;;;3.65;3.40;;;;;;;8.09;nan;98759.91;5036557;27;97362;-83
2023/11/11 04:30:11;;;;;;;0.77;0.77;;;;;;;7.94;nan;98742.34;5045015;27;98408;-82
2023/11/11 04:32:37;;;;;;;4.45;4.13;;;;;;;8.00;nan;98754.25;5024671;27;101473;-83
2023/11/11 04:35:03;;;;;;;2.00;1.42;;;;;;;8.06;nan;98760.06;5042437;27;96801;-83
2023/11/11 04:37:30;;;;;;;2.65;2.45;;;;;;;8.03;nan;98756.72;5026643;27;97118;-83
2023/11/11 04:39:57;;;;;;;6.45;5.90;;;;;;;7.98;nan;98753.50;5013702;27;101308;-81
2023/11/11 04:42:24;;;;;;;4.07;3.75;;;;;;;7.99;nan;98766.50;5027380;27;98087;-83
2023/11/11 04:44:51;;;;;;;1.77;1.67;;;;;;;8.03;nan;98761.94;5015902;27;97148;-82
2023/11/11 04:47:20;;;;;;;0.93;0.93;;;;;;;7.94;nan;98771.06;5044886;27;98341;-82
2023/11/11 04:49:48;;;;;;;1.83;1.73;;;;;;;7.83;nan;98757.72;5024681;27;99705;-82
2023/11/11 04:52:14;;;;;;;7.65;6.85;;;;;;;7.69;nan;98729.63;5042882;27;97424;-82
2023/11/11 04:54:41;;;;;;;1.83;1.73;;;;;;;7.75;nan;98760.69;5028505;27;97529;-83
2023/11/11 04:57:06;;;;;;;9.57;4.40;;;;;;;7.83;nan;98782.06;5022466;27;97150;-83
2023/11/11 04:59:31;;;;;;;1.50;1.40;;;;;;;7.86;nan;98774.06;5015610;27;101242;-83
2023/11/11 05:01:57;;;;;;;1.55;1.45;;;;;;;7.84;nan;98769.84;5026483;27;98464;-83
2023/11/11 05:04:23;;;;;;;5.32;4.82;;;;;;;7.71;nan;98767.81;5029557;27;96765;-83
2023/11/11 05:06:49;;;;;;;3.22;2.65;;;;;;;7.67;nan;98747.97;5034001;27;97273;-83
2023/11/11 05:09:19;;;;;;;2.05;1.52;;;;;;;7.79;nan;98763.97;5024545;27;101616;-83
2023/11/11 05:11:45;;;;;;;1.52;1.45;;;;;;;7.71;nan;98759.97;5027525;27;101305;-82
2023/11/11 05:14:13;;;;;;;2.08;1.98;;;;;;;7.62;nan;98765.63;5031748;27;96752;-83
2023/11/11 05:16:44;;;;;;;0.85;0.85;;;;;;;7.67;nan;98778.47;5014231;27;97036;-83
2023/11/11 05:19:10;;;;;;;0.27;0.27;;;;;;;7.57;nan;98774.59;5042986;27;97954;-84
2023/11/11 05:21:36;;;;;;;1.23;1.17;;;;;;;7.56;nan;98793.78;5034867;27;100163;-83
2023/11/11 05:24:03;;;;;;;0.75;0.75;;;;;;;7.32;nan;98752.22;5042108;27;96894;-84
2023/11/11 05:26:28;;;;;;;0.98;0.98;;;;;;;7.54;nan;98772.97;5030986;27;96802;-84
2023/11/11 05:28:55;;;;;;;0.57;0.57;;;;;;;7.45;nan;98753.34;5042387;27;97772;-84
2023/11/11 05:31:25;;;;;;;3.70;2.38;;;;;;;7.56;nan;98772.88;5048870;27;97936;-83
2023/11/11 05:33:51;;;;;;;1.08;1.05;;;;;;;7.60;nan;98797.97;5029575;27;96816;-84
2023/11/11 05:36:19;;;;;;;1.88;1.77;;;;;;;7.41;nan;98774.44;5039741;27;97206;-84
2023/11/11 05:38:47;;;;;;;3.20;1.50;;;;;;;7.55;nan;98795.53;5032512;27;97898;-84
2023/11/11 05:41:14;;;;;;;9.77;3.67;;;;;;;7.60;nan;98788.34;5019942;27;101756;-84
2023/11/11 05:43:39;;;;;;;1.00;1.00;;;;;;;7.63;nan;98792.59;5009258;27;97895;-84
2023/11/11 05:46:05;;;;;;;6.07;4.63;;;;;;;7.65;nan;98803.78;5017653;27;97472;-84
2023/11/11 05:48:30;;;;;;;2.10;1.95;;;;;;;7.61;nan;98797.03;5009698;27;101202;-84
2023/11/11 05:50:56;;;;;;;4.10;3.63;;;;;;;7.43;nan;98776.06;5024090;27;101460;-84
2023/11/11 05:53:21;;;;;;;0.50;0.50;;;;;;;7.59;nan;98807.56;5014648;27;96869;-85
2023/11/11 05:55:47;;;;;;;2.90;2.67;;;;;;;7.29;nan;98783.69;5005201;27;97217;-84
2023/11/11 05:58:13;;;;;;;3.00;2.80;;;;;;;7.19;nan;98803.28;5005410;27;100767;-85
2023/11/11 06:00:39;;;;;;;3.30;3.00;;;;;;;7.10;nan;98780.19;5006721;27;101350;-85
2023/11/11 06:03:05;;;;;;;2.60;2.15;;;;;;;7.35;nan;98811.28;5018631;27;96823;-84
2023/11/11 06:05:31;;;;;;;1.85;1.60;;;;;;;7.23;nan;98778.72;5012126;27;97030;-84
2023/11/11 06:07:56;;;;;;;2.65;2.50;;;;;;;7.28;nan;98782.00;5004039;27;100643;-84
2023/11/11 06:10:23;;;;;;;0.52;0.52;;;;;;;7.33;nan;98792.22;5003880;27;101270;-84
2023/11/11 06:12:49;;;;;;;2.33;2.20;;;;;;;7.47;nan;98814.16;5020497;27;96744;-84
2023/11/11 06:15:15;;;;;;;1.95;1.63;;;;;;;7.17;nan;98761.59;5032096;27;97296;-84
2023/11/11 06:17:40;;;;;;;0.40;0.40;;;;;;;7.47;nan;98811.56;5038412;27;97435;-85
2023/11/11 06:20:08;;;;;;;4.05;3.78;;;;;;;7.54;nan;98813.91;5026736;27;101323;-85
2023/11/11 06:22:33;;;;;;;4.50;4.20;;;;;;;7.23;nan;98763.06;5002434;27;96686;-84
2023/11/11 06:24:59;;;;;;;0.52;0.52;;;;;;;7.51;nan;98817.50;5021954;27;96882;-85
2023/11/11 06:27:25;;;;;;;0.52;0.52;;;;;;;7.60;nan;98832.75;5048384;27;97982;-85
2023/11/11 06:29:50;;;;;;;4.22;3.88;;;;;;;7.67;nan;98838.53;5032133;27;97478;-84
2023/11/11 06:32:16;;;;;;;1.92;1.83;;;;;;;7.29;nan;98807.16;5016762;27;97667;-84
2023/11/11 06:34:41;;;;;;;1.65;1.52;;;;;;;7.36;nan;98839.06;5010234;27;97130;-84
2023/11/11 06:37:07;;;;;;;7.07;4.50;;;;;;;7.41;nan;98829.25;5019212;27;97874;-85
2023/11/11 06:39:33;;;;;;;0.22;0.22;;;;;;;7.10;nan;98764.53;5010951;27;102082;-84
2023/11/11 06:41:59;;;;;;;4.82;4.30;;;;;;;7.35;nan;98801.66;5021495;27;96827;-84
2023/11/11 06:44:25;;;;;;;2.92;2.72;;;;;;;7.64;nan;98846.50;5021483;27;96901;-85
2023/11/11 06:46:51;;;;;;;2.55;2.35;;;;;;;7.75;nan;98843.41;5014654;27;97530;-84
2023/11/11 06:49:17;;;;;;;2.10;2.00;;;;;;;7.82;nan;98848.28;5040938;27;97407;-84
2023/11/11 06:51:42;;;;;;;2.80;2.65;;;;;;;7.67;nan;98821.09;5046719;27;96689;-84
2023/11/11 06:54:09;;;;;;;3.88;3.67;;;;;;;7.63;nan;98809.09;5036904;27;96872;-84
2023/11/11 06:56:35;;;;;;;1.75;1.63;;;;;;;7.82;nan;98839.59;5032892;27;97893;-84
2023/11/11 06:59:02;;;;;;;2.70;2.03;;;;;;;7.81;nan;98822.22;5010228;28;101418;-84
2023/11/11 07:01:29;;;;;;;2.03;1.92;;;;;;;7.52;nan;98773.97;5014514;27;96858;-84
2023/11/11 07:03:57;;;;;;;2.25;2.13;;;;;;;7.76;nan;98812.00;5014973;27;97170;-84
2023/11/11 07:06:23;;;;;;;7.65;6.43;;;;;;;7.84;nan;98822.09;5029643;27;101442;-85
2023/11/11 07:08:52;;;;;;;2.38;2.17;;;;;;;7.78;nan;98812.78;5006961;28;101074;-83
2023/11/11 07:11:19;;;;;;;2.83;2.40;;;;;;;7.78;nan;98811.94;4991429;27;96760;-84
2023/11/11 07:13:45;;;;;;;15.13;2.83;;;;;;;7.88;nan;98824.50;5022634;27;98024;-83
2023/11/11 07:16:12;;;;;;;3.33;3.05;;;;;;;7.65;nan;98795.97;5028861;27;97841;-82
2023/11/11 07:18:39;;;;;;;3.63;2.67;;;;;;;7.63;nan;98793.44;5007192;27;101643;-83
2023/11/11 07:21:05;;;;;;;2.55;2.35;;;;;;;7.88;nan;98823.63;5021418;28;97245;-83
2023/11/11 07:23:31;;;;;;;6.85;6.28;;;;;;;7.84;nan;98809.88;5024837;27;98225;-85
2023/11/11 07:25:57;;;;;;;1.50;1.42;;;;;;;7.94;nan;98826.81;5014464;27;97427;-83
2023/11/11 07:28:24;;;;;;;5.25;3.20;;;;;;;7.91;nan;98823.47;5005496;28;101423;-82
2023/11/11 07:30:50;;;;;;;2.25;2.15;;;;;;;7.91;nan;98818.25;4996504;27;97035;-82
2023/11/11 07:33:16;;;;;;;0.30;0.30;;;;;;;7.69;nan;98780.09;5013681;27;97086;-82
2023/11/11 07:35:42;;;;;;;0.65;0.65;;;;;;;7.90;nan;98803.50;5013785;27;100266;-83
2023/11/11 07:38:07;;;;;;;2.05;1.95;;;;;;;8.11;nan;98835.63;5008554;28;101760;-83
2023/11/11 07:40:33;;;;;;;1.00;0.98;;;;;;;8.12;nan;98848.63;5029443;27;96755;-84
2023/11/11 07:42:59;;;;;;;2.53;2.28;;;;;;;7.98;nan;98850.19;5012892;27;97631;-85
2023/11/11 07:45:26;;;;;;;2.88;2.65;;;;;;;7.98;nan;98842.34;5016053;27;97302;-84
2023/11/11 07:47:52;;;;;;;3.63;3.35;;;;;;;7.31;nan;98813.19;5023748;27;98561;-84
2023/11/11 07:50:19;;;;;;;2.75;1.85;;;;;;;7.43;nan;98791.72;5021441;27;97152;-84
2023/11/11 07:52:45;;;;;;;1.00;1.00;;;;;;;7.52;nan;98816.56;5016614;27;98508;-84
2023/11/11 07:55:10;;;;;;;0.88;0.88;;;;;;;7.41;nan;98805.78;5009131;27;97405;-85
2023/11/11 07:57:36;;;;;;;1.35;1.25;;;;;;;7.66;nan;98815.97;5013791;27;98517;-84
2023/11/11 08:00:06;;;;;;;2.92;2.67;;;;;;;7.77;nan;98811.09;4987236;27;97136;-84
2023/11/11 08:02:33;;;;;;;4.10;1.50;;;;;;;7.71;nan;98825.28;4995419;28;96707;-84
2023/11/11 08:04:58;;;;;;;1.25;1.17;;;;;;;7.86;nan;98825.50;5016432;28;97524;-85
2023/11/11 08:07:24;;;;;;;4.97;2.13;;;;;;;7.78;nan;98785.81;5024887;27;98366;-84
2023/11/11 08:09:50;;;;;;;2.08;1.98;;;;;;;7.89;nan;98810.50;5034359;27;97750;-84
2023/11/11 08:12:17;;;;;;;1.08;1.08;;;;;;;7.78;nan;98789.25;5023313;27;98224;-84
2023/11/11 08:14:43;;;;;;;2.83;1.85;;;;;;;8.12;nan;98829.50;5038518;27;97385;-84
2023/11/11 08:17:08;;;;;;;4.63;4.18;;;;;;;8.14;nan;98823.28;5032972;27;97918;-84
2023/11/11 08:19:34;;;;;;;0.80;0.80;;;;;;;8.15;nan;98816.28;5010076;27;96818;-85
2023/11/11 08:21:59;;;;;;;1.83;1.67;;;;;;;8.23;nan;98821.13;5016428;27;97883;-84
2023/11/11 08:24:25;;;;;;;2.65;2.47;;;;;;;8.25;nan;98795.75;5007992;27;101954;-84
2023/11/11 08:26:51;;;;;;;3.20;3.00;;;;;;;8.43;nan;98813.19;5011164;27;102790;-89
2023/11/11 08:29:16;;;;;;;1.58;1.48;;;;;;;8.30;nan;98822.53;5026396;27;96787;-84
2023/11/11 08:31:42;;;;;;;4.75;3.15;;;;;;;7.89;nan;98752.19;5028458;27;96890;-84
2023/11/11 08:34:08;;;;;;;1.02;0.93;;;;;;;8.13;nan;98813.72;5039065;27;97516;-84
2023/11/11 08:36:35;;;;;;;4.20;3.88;;;;;;;8.10;nan;98820.88;5032977;27;97911;-84
2023/11/11 08:39:00;;;;;;;2.10;2.00;;;;;;;7.95;nan;98785.84;5042395;27;97272;-83
2023/11/11 08:41:27;;;;;;;0.95;0.95;;;;;;;7.80;nan;98783.97;5022276;27;97826;-84
2023/11/11 08:43:53;;;;;;;1.35;1.25;;;;;;;8.12;nan;98812.03;5008639;27;101740;-83
2023/11/11 08:46:18;;;;;;;1.55;1.50;;;;;;;8.29;nan;98803.38;5038041;27;97248;-84
2023/11/11 08:48:44;;;;;;;37.03;22.48;;;;;;;8.37;nan;98803.84;5027698;27;97252;-81
2023/11/11 08:51:11;;;;;;;36.55;21.60;;;;;;;8.35;nan;98810.09;5030979;27;97096;-81
2023/11/11 08:53:37;;;;;;;35.55;22.77;;;;;;;8.37;nan;98813.44;5023890;27;101455;-81
2023/11/11 08:56:03;;;;;;;38.22;23.58;;;;;;;8.33;nan;98807.53;5003521;27;99583;-82
2023/11/11 08:58:29;;;;;;;40.90;23.27;;;;;;;8.24;nan;98789.69;5023490;27;97408;-79
2023/11/11 09:00:56;;;;;;;37.97;23.33;;;;;;;8.18;nan;98797.00;5035530;27;96813;-80
2023/11/11 09:03:21;;;;;;;34.53;22.90;;;;;;;8.41;nan;98811.56;5030521;27;97950;-76
2023/11/11 09:05:47;;;;;;;34.50;21.10;;;;;;;8.58;nan;98825.53;5037132;27;97877;-80
2023/11/11 09:08:12;;;;;;;34.22;23.80;;;;;;;8.60;nan;98823.66;5019878;27;96847;-79
2023/11/11 09:10:39;;;;;;;33.95;22.33;;;;;;;8.57;nan;98815.13;5043154;27;96916;-83
2023/11/11 09:13:05;;;;;;;34.72;23.80;;;;;;;8.61;nan;98803.59;5024919;27;98222;-78
2023/11/11 09:15:32;;;;;;;32.13;21.20;;;;;;;8.68;nan;98817.22;5034554;27;100620;-81
2023/11/11 09:17:57;;;;;;;31.95;22.15;;;;;;;8.58;nan;98788.03;5006735;27;97209;-79
2023/11/11 09:20:23;;;;;;;33.13;20.75;;;;;;;8.73;nan;98813.44;5036865;27;96911;-79
2023/11/11 09:22:49;;;;;;;36.45;21.60;;;;;;;8.79;nan;98815.75;5032989;27;97443;-78
2023/11/11 09:25:15;;;;;;;32.05;20.75;;;;;;;8.73;nan;98782.06;5037436;27;97680;-83
2023/11/11 09:27:41;;;;;;;31.75;20.65;;;;;;;8.99;nan;98813.91;5020243;27;97352;-81
2023/11/11 09:30:08;;;;;;;39.10;22.20;;;;;;;9.03;nan;98816.25;5038112;27;97043;-82
2023/11/11 09:32:34;;;;;;;31.80;21.95;;;;;;;9.07;nan;98785.53;5035484;27;97515;-80
2023/11/11 09:35:00;;;;;;;33.97;20.42;;;;;;;9.22;nan;98812.66;5034732;27;97778;-80
2023/11/11 09:37:26;;;;;;;33.80;21.23;;;;;;;8.99;nan;98787.72;5029048;27;96886;-81
2023/11/11 09:39:51;;;;;;;30.25;20.30;;;;;;;9.10;nan;98792.38;5039236;27;96724;-80
2023/11/11 09:42:17;;;;;;;34.45;20.20;;;;;;;9.21;nan;98806.59;5040682;27;97574;-79
2023/11/11 09:44:43;;;;;;;29.08;18.98;;;;;;;9.27;nan;98801.03;5024404;27;97293;-81
2023/11/11 09:47:12;;;;;;;30.58;20.63;;;;;;;9.42;nan;98795.91;5029416;28;97059;-81
2023/11/11 09:49:39;;;;;;;31.40;21.08;;;;;;;9.53;nan;98793.56;5027655;27;96890;-81
2023/11/11 09:52:07;;;;;;;32.60;19.75;;;;;;;9.67;nan;98793.66;5018860;27;97924;-81
2023/11/11 09:54:34;;;;;;;31.48;19.65;;;;;;;9.83;nan;98791.06;5018687;27;97455;-81
2023/11/11 09:57:00;;;;;;;32.05;20.73;;;;;;;10.01;nan;98783.13;5030835;27;96829;-83
2023/11/11 09:59:26;;;;;;;34.75;21.63;;;;;;;10.03;nan;98784.69;5024864;27;97400;-81
2023/11/11 10:01:52;;;;;;;30.75;20.83;;;;;;;10.01;nan;98781.34;5022074;27;101595;-81
2023/11/11 10:04:19;;;;;;;34.33;20.77;;;;;;;10.12;nan;98786.81;5020655;27;99532;-81
2023/11/11 10:06:45;;;;;;;30.85;19.90;;;;;;;10.10;nan;98782.59;5013577;27;97176;-84
2023/11/11 10:09:12;;;;;;;30.88;19.77;;;;;;;10.03;nan;98783.84;5057430;27;97162;-82
2023/11/11 10:11:39;;;;;;;28.33;18.40;;;;;;;9.84;nan;98766.53;5004392;27;101216;-82
2023/11/11 10:14:07;;;;;;;31.67;20.58;;;;;;;10.01;nan;98776.09;5027900;27;97644;-81
2023/11/11 10:16:36;;;;;;;28.50;19.13;;;;;;;9.95;nan;98771.19;5031383;27;96947;-82
2023/11/11 10:19:02;;;;;;;33.00;18.95;;;;;;;10.11;nan;98779.03;5033122;27;98134;-79
2023/11/11 10:21:28;;;;;;;30.38;18.38;;;;;;;10.29;nan;98775.38;5054504;27;98099;-82
2023/11/11 10:23:57;;;;;;;31.38;17.50;;;;;;;10.42;nan;98765.88;5036865;27;98238;-79
2023/11/11 10:26:22;;;;;;;29.80;19.35;;;;;;;10.42;nan;98772.91;5045407;27;97385;-80
2023/11/11 10:28:52;;;;;;;28.90;18.92;;;;;;;10.41;nan;98753.72;5040074;27;96742;-79
2023/11/11 10:31:19;;;;;;;29.23;20.52;;;;;;;10.47;nan;98760.38;5034473;27;98634;-79
2023/11/11 10:33:45;;;;;;;28.45;18.77;;;;;;;10.60;nan;98766.59;5035309;27;97459;-83
2023/11/11 10:36:11;;;;;;;28.15;18.60;;;;;;;10.70;nan;98759.00;5038903;27;97054;-79
2023/11/11 10:38:41;;;;;;;27.77;17.88;;;;;;;10.58;nan;98746.63;5027850;27;99401;-79
2023/11/11 10:41:07;;;;;;;32.00;18.70;;;;;;;10.69;nan;98753.88;5047296;27;98497;-82
2023/11/11 10:43:33;;;;;;;31.88;17.90;;;;;;;10.72;nan;98762.41;5033533;27;97750;-79
2023/11/11 10:46:00;;;;;;;30.77;16.52;;;;;;;10.77;nan;98725.38;5007978;27;96750;-78
2023/11/11 10:48:26;;;;;;;21.02;14.18;;;;;;;10.93;nan;98738.41;5042900;27;97593;-79
2023/11/11 10:50:53;;;;;;;26.23;16.00;;;;;;;11.04;nan;98764.88;5038549;27;97675;-79
2023/11/11 10:53:19;;;;;;;24.02;14.50;;;;;;;11.10;nan;98757.47;5031335;27;101309;-79
2023/11/11 10:55:49;;;;;;;22.83;14.43;;;;;;;11.12;nan;98749.50;5034042;27;97224;-82
2023/11/11 10:58:18;;;;;;;26.98;15.65;;;;;;;11.13;nan;98758.22;5055539;27;96922;-83
2023/11/11 11:00:46;;;;;;;20.98;14.20;;;;;;;10.91;nan;98742.91;5043245;27;97370;-79
2023/11/11 11:03:13;;;;;;;21.40;13.63;;;;;;;10.98;nan;98741.63;5047928;27;99483;-80
2023/11/11 11:06:15;;;;;;;24.13;14.80;;;;;;;10.98;nan;98749.50;5063909;27;97266;-80
2023/11/11 11:09:14;;;;;;;;;;;;;;;10.94;nan;98751.47;5053314;27;97144;-84
2023/11/11 11:12:07;;;;;;;23.38;16.13;;;;;;;10.97;nan;98748.66;5007357;27;97965;-83
2023/11/11 11:14:52;;;;;;;24.70;16.23;;;;;;;10.83;nan;98732.88;5037901;27;101428;-84
2023/11/11 11:17:18;;;;;;;25.77;17.33;;;;;;;11.01;nan;98742.28;5056334;27;97456;-84
2023/11/11 11:19:56;;;;;;;26.30;17.05;;;;;;;11.04;nan;98743.88;5032509;27;96910;-83
2023/11/11 11:22:33;;;;;;;26.80;16.63;;;;;;;10.93;nan;98741.03;5073240;27;97432;-83
2023/11/11 11:24:59;;;;;;;29.67;18.05;;;;;;;10.74;nan;98725.56;5039406;27;100421;-82
2023/11/11 11:27:24;;;;;;;25.27;16.73;;;;;;;10.85;nan;98739.75;5045943;27;97224;-82
2023/11/11 11:29:51;;;;;;;25.10;17.73;;;;;;;10.85;nan;98752.03;5046517;27;98099;-86
2023/11/11 11:32:22;;;;;;;29.20;18.05;;;;;;;10.81;nan;98745.25;5058652;27;98525;-86
2023/11/11 11:35:27;;;;;;;27.80;17.23;;;;;;;10.93;nan;98741.03;5057763;27;101550;-85
2023/11/11 11:37:53;;;;;;;24.23;16.70;;;;;;;10.99;nan;98756.44;5034730;27;97847;-80
2023/11/11 11:40:20;;;;;;;21.13;14.70;;;;;;;11.17;nan;98744.81;5032250;27;97343;-82
2023/11/11 11:42:48;;;;;;;24.05;15.80;;;;;;;11.10;nan;98746.97;5059182;27;97649;-81
2023/11/11 11:45:14;;;;;;;22.90;14.05;;;;;;;10.99;nan;98738.03;5049360;27;98008;-81
2023/11/11 11:47:40;;;;;;;22.42;14.20;;;;;;;10.98;nan;98718.81;5044723;27;97341;-82
2023/11/11 11:50:06;;;;;;;19.42;13.70;;;;;;;10.97;nan;98748.66;5034067;27;97013;-81